sensor_id;sensor_type;location;lat;lon;timestamp;pressure;altitude;pressure_sealevel;temperature;humidity
21574;BME280;10948;48.706;9.258;2023-02-19T00:01:10;98304.50;;;11.97;100.00
21574;BME280;10948;48.706;9.258;2023-02-19T00:03:36;98297.59;;;11.96;100.00
21574;BME280;10948;48.706;9.258;2023-02-19T00:06:02;98302.19;;;12.07;100.00
21574;BME280;10948;48.706;9.258;2023-02-19T00:08:28;98308.06;;;11.81;100.00
21574;BME280;10948;48.706;9.258;2023-02-19T00:10:54;98308.88;;;11.97;100.00
21574;BME280;10948;48.706;9.258;2023-02-19T00:13:23;98302.47;;;12.02;100.00
21574;BME280;10948;48.706;9.258;2023-02-19T00:15:48;98299.59;;;12.07;100.00
21574;BME280;10948;48.706;9.258;2023-02-19T00:18:14;98301.81;;;11.99;100.00
21574;BME280;10948;48.706;9.258;2023-02-19T00:20:39;98300.94;;;11.98;100.00
21574;BME280;10948;48.706;9.258;2023-02-19T00:23:04;98298.28;;;12.00;100.00
21574;BME280;10948;48.706;9.258;2023-02-19T00:25:29;98299.81;;;11.88;100.00
21574;BME280;10948;48.706;9.258;2023-02-19T00:27:54;98299.38;;;11.96;100.00
21574;BME280;10948;48.706;9.258;2023-02-19T00:30:20;98295.06;;;11.95;100.00
21574;BME280;10948;48.706;9.258;2023-02-19T00:32:48;98293.59;;;11.91;100.00
21574;BME280;10948;48.706;9.258;2023-02-19T00:35:14;98293.25;;;11.97;100.00
21574;BME280;10948;48.706;9.258;2023-02-19T00:37:39;98288.13;;;11.80;100.00
21574;BME280;10948;48.706;9.258;2023-02-19T00:40:04;98289.84;;;11.95;100.00
21574;BME280;10948;48.706;9.258;2023-02-19T00:42:30;98290.03;;;11.92;100.00
21574;BME280;10948;48.706;9.258;2023-02-19T00:44:55;98292.56;;;11.93;100.00
21574;BME280;10948;48.706;9.258;2023-02-19T00:47:20;98295.69;;;11.84;100.00
21574;BME280;10948;48.706;9.258;2023-02-19T00:49:45;98292.06;;;11.87;100.00
21574;BME280;10948;48.706;9.258;2023-02-19T00:52:11;98301.81;;;11.99;100.00
21574;BME280;10948;48.706;9.258;2023-02-19T00:54:36;98304.69;;;11.94;100.00
21574;BME280;10948;48.706;9.258;2023-02-19T00:57:01;98308.16;;;11.79;100.00
21574;BME280;10948;48.706;9.258;2023-02-19T00:59:26;98301.16;;;11.95;100.00
21574;BME280;10948;48.706;9.258;2023-02-19T01:01:51;98296.59;;;11.99;100.00
21574;BME280;10948;48.706;9.258;2023-02-19T01:04:17;98305.69;;;11.92;100.00
21574;BME280;10948;48.706;9.258;2023-02-19T01:06:42;98297.88;;;11.92;100.00
21574;BME280;10948;48.706;9.258;2023-02-19T01:09:07;98295.94;;;11.80;100.00
21574;BME280;10948;48.706;9.258;2023-02-19T01:11:33;98285.56;;;11.94;100.00
21574;BME280;10948;48.706;9.258;2023-02-19T01:13:59;98278.09;;;11.88;100.00
21574;BME280;10948;48.706;9.258;2023-02-19T01:16:24;98283.31;;;11.88;100.00
21574;BME280;10948;48.706;9.258;2023-02-19T01:18:51;98286.09;;;11.85;100.00
21574;BME280;10948;48.706;9.258;2023-02-19T01:21:18;98274.97;;;11.97;100.00
21574;BME280;10948;48.706;9.258;2023-02-19T01:23:43;98269.72;;;11.83;100.00
21574;BME280;10948;48.706;9.258;2023-02-19T01:26:11;98262.97;;;11.79;100.00
21574;BME280;10948;48.706;9.258;2023-02-19T01:28:36;98261.69;;;11.86;100.00
21574;BME280;10948;48.706;9.258;2023-02-19T01:31:02;98262.84;;;11.66;100.00
21574;BME280;10948;48.706;9.258;2023-02-19T01:33:27;98265.00;;;11.74;100.00
21574;BME280;10948;48.706;9.258;2023-02-19T01:35:53;98258.09;;;11.73;100.00
21574;BME280;10948;48.706;9.258;2023-02-19T01:38:18;98258.66;;;11.64;100.00
21574;BME280;10948;48.706;9.258;2023-02-19T01:40:43;98254.41;;;11.77;100.00
21574;BME280;10948;48.706;9.258;2023-02-19T01:43:18;98259.31;;;11.67;100.00
21574;BME280;10948;48.706;9.258;2023-02-19T01:45:43;98254.91;;;11.68;100.00
21574;BME280;10948;48.706;9.258;2023-02-19T01:50:41;98253.78;;;11.58;100.00
21574;BME280;10948;48.706;9.258;2023-02-19T01:53:08;98253.88;;;11.55;100.00
21574;BME280;10948;48.706;9.258;2023-02-19T01:55:36;98257.63;;;11.66;100.00
21574;BME280;10948;48.706;9.258;2023-02-19T01:58:01;98249.88;;;11.65;100.00
21574;BME280;10948;48.706;9.258;2023-02-19T02:00:27;98260.81;;;11.56;100.00
21574;BME280;10948;48.706;9.258;2023-02-19T02:02:53;98258.09;;;11.57;100.00
21574;BME280;10948;48.706;9.258;2023-02-19T02:08:03;98248.56;;;11.58;100.00
21574;BME280;10948;48.706;9.258;2023-02-19T02:10:47;98248.13;;;11.50;100.00
21574;BME280;10948;48.706;9.258;2023-02-19T02:13:12;98241.13;;;11.50;100.00
21574;BME280;10948;48.706;9.258;2023-02-19T02:15:48;98249.38;;;11.43;100.00
21574;BME280;10948;48.706;9.258;2023-02-19T02:24:19;98247.19;;;11.51;100.00
21574;BME280;10948;48.706;9.258;2023-02-19T02:29:20;98247.88;;;11.39;100.00
21574;BME280;10948;48.706;9.258;2023-02-19T02:31:53;98244.91;;;11.45;100.00
21574;BME280;10948;48.706;9.258;2023-02-19T02:34:28;98248.53;;;11.42;100.00
21574;BME280;10948;48.706;9.258;2023-02-19T02:36:54;98243.75;;;11.35;100.00
21574;BME280;10948;48.706;9.258;2023-02-19T02:39:21;98237.78;;;11.33;100.00
21574;BME280;10948;48.706;9.258;2023-02-19T02:41:54;98231.56;;;11.35;100.00
21574;BME280;10948;48.706;9.258;2023-02-19T02:44:38;98236.25;;;11.29;100.00
21574;BME280;10948;48.706;9.258;2023-02-19T02:47:04;98228.53;;;11.27;100.00
21574;BME280;10948;48.706;9.258;2023-02-19T02:49:30;98228.88;;;11.21;100.00
21574;BME280;10948;48.706;9.258;2023-02-19T02:52:18;98224.16;;;11.28;100.00
21574;BME280;10948;48.706;9.258;2023-02-19T02:55:06;98217.94;;;11.30;100.00
21574;BME280;10948;48.706;9.258;2023-02-19T02:57:33;98224.50;;;11.22;100.00
21574;BME280;10948;48.706;9.258;2023-02-19T02:59:58;98224.16;;;11.28;100.00
21574;BME280;10948;48.706;9.258;2023-02-19T03:02:25;98217.78;;;11.18;100.00
21574;BME280;10948;48.706;9.258;2023-02-19T03:08:08;98221.31;;;11.17;100.00
21574;BME280;10948;48.706;9.258;2023-02-19T03:10:42;98208.91;;;11.06;100.00
21574;BME280;10948;48.706;9.258;2023-02-19T03:13:10;98215.84;;;11.21;100.00
21574;BME280;10948;48.706;9.258;2023-02-19T03:15:56;98214.06;;;11.22;100.00
21574;BME280;10948;48.706;9.258;2023-02-19T03:18:40;98220.53;;;11.15;100.00
21574;BME280;10948;48.706;9.258;2023-02-19T03:21:26;98215.25;;;11.16;100.00
21574;BME280;10948;48.706;9.258;2023-02-19T03:23:52;98212.91;;;11.12;100.00
21574;BME280;10948;48.706;9.258;2023-02-19T03:26:35;98217.38;;;11.10;100.00
21574;BME280;10948;48.706;9.258;2023-02-19T03:29:03;98215.44;;;11.13;100.00
21574;BME280;10948;48.706;9.258;2023-02-19T03:31:51;98216.94;;;11.02;100.00
21574;BME280;10948;48.706;9.258;2023-02-19T03:34:21;98216.94;;;11.02;100.00
21574;BME280;10948;48.706;9.258;2023-02-19T03:36:50;98217.44;;;10.93;100.00
21574;BME280;10948;48.706;9.258;2023-02-19T03:39:19;98213.50;;;10.86;100.00
21574;BME280;10948;48.706;9.258;2023-02-19T03:44:16;98217.50;;;10.76;100.00
21574;BME280;10948;48.706;9.258;2023-02-19T03:46:45;98222.31;;;10.83;100.00
21574;BME280;10948;48.706;9.258;2023-02-19T03:49:27;98230.53;;;10.91;100.00
21574;BME280;10948;48.706;9.258;2023-02-19T03:52:00;98226.31;;;10.89;100.00
21574;BME280;10948;48.706;9.258;2023-02-19T03:57:36;98237.53;;;10.91;100.00
21574;BME280;10948;48.706;9.258;2023-02-19T04:00:15;98240.59;;;10.82;100.00
21574;BME280;10948;48.706;9.258;2023-02-19T04:05:15;98247.97;;;10.74;100.00
21574;BME280;10948;48.706;9.258;2023-02-19T04:07:44;98242.94;;;10.71;100.00
21574;BME280;10948;48.706;9.258;2023-02-19T04:10:10;98244.56;;;10.74;100.00
21574;BME280;10948;48.706;9.258;2023-02-19T04:12:38;98251.50;;;10.73;100.00
21574;BME280;10948;48.706;9.258;2023-02-19T04:15:06;98252.06;;;10.63;100.00
21574;BME280;10948;48.706;9.258;2023-02-19T04:20:17;98252.16;;;10.61;100.00
21574;BME280;10948;48.706;9.258;2023-02-19T04:22:44;98260.19;;;10.74;100.00
21574;BME280;10948;48.706;9.258;2023-02-19T04:25:10;98266.22;;;10.74;100.00
21574;BME280;10948;48.706;9.258;2023-02-19T04:27:38;98258.44;;;10.89;100.00
21574;BME280;10948;48.706;9.258;2023-02-19T04:30:05;98265.44;;;10.72;100.00
21574;BME280;10948;48.706;9.258;2023-02-19T04:32:30;98258.81;;;10.67;100.00
21574;BME280;10948;48.706;9.258;2023-02-19T04:34:56;98259.97;;;10.61;100.00
21574;BME280;10948;48.706;9.258;2023-02-19T04:37:21;98265.94;;;10.63;100.00
21574;BME280;10948;48.706;9.258;2023-02-19T04:39:46;98264.09;;;10.65;100.00
21574;BME280;10948;48.706;9.258;2023-02-19T04:42:11;98274.31;;;10.68;100.00
21574;BME280;10948;48.706;9.258;2023-02-19T04:44:36;98270.47;;;10.75;100.00
21574;BME280;10948;48.706;9.258;2023-02-19T04:47:02;98281.22;;;10.69;100.00
21574;BME280;10948;48.706;9.258;2023-02-19T04:49:27;98279.06;;;10.77;100.00
21574;BME280;10948;48.706;9.258;2023-02-19T04:51:52;98271.47;;;10.73;100.00
21574;BME280;10948;48.706;9.258;2023-02-19T04:54:17;98280.53;;;10.66;100.00
21574;BME280;10948;48.706;9.258;2023-02-19T04:56:43;98290.72;;;10.70;100.00
21574;BME280;10948;48.706;9.258;2023-02-19T04:59:08;98294.69;;;10.77;100.00
21574;BME280;10948;48.706;9.258;2023-02-19T05:01:33;98294.53;;;10.80;100.00
21574;BME280;10948;48.706;9.258;2023-02-19T05:03:59;98297.84;;;10.67;100.00
21574;BME280;10948;48.706;9.258;2023-02-19T05:06:24;98294.16;;;10.71;100.00
21574;BME280;10948;48.706;9.258;2023-02-19T05:08:50;98300.00;;;10.59;100.00
21574;BME280;10948;48.706;9.258;2023-02-19T05:11:15;98301.03;;;10.72;100.00
21574;BME280;10948;48.706;9.258;2023-02-19T05:13:40;98297.38;;;10.76;100.00
21574;BME280;10948;48.706;9.258;2023-02-19T05:16:06;98297.19;;;10.63;100.00
21574;BME280;10948;48.706;9.258;2023-02-19T05:18:32;98294.66;;;10.62;100.00
21574;BME280;10948;48.706;9.258;2023-02-19T05:20:58;98290.84;;;10.84;100.00
21574;BME280;10948;48.706;9.258;2023-02-19T05:23:24;98302.91;;;10.70;100.00
21574;BME280;10948;48.706;9.258;2023-02-19T05:25:50;98305.06;;;10.62;100.00
21574;BME280;10948;48.706;9.258;2023-02-19T05:28:15;98307.13;;;10.55;100.00
21574;BME280;10948;48.706;9.258;2023-02-19T05:30:41;98304.50;;;10.72;100.00
21574;BME280;10948;48.706;9.258;2023-02-19T05:33:06;98303.06;;;10.67;100.00
21574;BME280;10948;48.706;9.258;2023-02-19T05:35:31;98299.53;;;10.68;100.00
21574;BME280;10948;48.706;9.258;2023-02-19T05:37:57;98290.63;;;10.72;100.00
21574;BME280;10948;48.706;9.258;2023-02-19T05:40:22;98302.38;;;10.63;100.00
21574;BME280;10948;48.706;9.258;2023-02-19T05:42:47;98307.41;;;10.66;100.00
21574;BME280;10948;48.706;9.258;2023-02-19T05:45:12;98299.00;;;10.61;100.00
21574;BME280;10948;48.706;9.258;2023-02-19T05:47:37;98308.34;;;10.65;100.00
21574;BME280;10948;48.706;9.258;2023-02-19T05:50:03;98308.28;;;10.67;100.00
21574;BME280;10948;48.706;9.258;2023-02-19T05:52:28;98312.94;;;10.60;100.00
21574;BME280;10948;48.706;9.258;2023-02-19T05:54:53;98311.09;;;10.62;100.00
21574;BME280;10948;48.706;9.258;2023-02-19T05:57:18;98316.16;;;10.65;100.00
21574;BME280;10948;48.706;9.258;2023-02-19T05:59:45;98312.44;;;10.69;100.00
21574;BME280;10948;48.706;9.258;2023-02-19T06:02:10;98312.88;;;10.62;100.00
21574;BME280;10948;48.706;9.258;2023-02-19T06:04:36;98315.53;;;10.77;100.00
21574;BME280;10948;48.706;9.258;2023-02-19T06:07:01;98318.81;;;10.64;100.00
21574;BME280;10948;48.706;9.258;2023-02-19T06:09:26;98330.09;;;10.64;100.00
21574;BME280;10948;48.706;9.258;2023-02-19T06:11:51;98321.19;;;10.68;100.00
21574;BME280;10948;48.706;9.258;2023-02-19T06:14:16;98332.22;;;10.73;100.00
21574;BME280;10948;48.706;9.258;2023-02-19T06:16:42;98330.84;;;10.66;100.00
21574;BME280;10948;48.706;9.258;2023-02-19T06:19:07;98329.41;;;10.61;100.00
21574;BME280;10948;48.706;9.258;2023-02-19T06:21:33;98350.44;;;10.73;100.00
21574;BME280;10948;48.706;9.258;2023-02-19T06:23:58;98350.28;;;10.42;100.00
21574;BME280;10948;48.706;9.258;2023-02-19T06:26:29;98365.59;;;10.48;100.00
21574;BME280;10948;48.706;9.258;2023-02-19T06:28:54;98367.38;;;10.48;100.00
21574;BME280;10948;48.706;9.258;2023-02-19T06:31:20;98381.06;;;10.51;100.00
21574;BME280;10948;48.706;9.258;2023-02-19T06:33:46;98381.81;;;10.36;100.00
21574;BME280;10948;48.706;9.258;2023-02-19T06:36:13;98373.47;;;10.30;100.00
21574;BME280;10948;48.706;9.258;2023-02-19T06:38:38;98369.72;;;10.35;100.00
21574;BME280;10948;48.706;9.258;2023-02-19T06:41:04;98385.31;;;10.35;100.00
21574;BME280;10948;48.706;9.258;2023-02-19T06:43:30;98393.41;;;10.48;100.00
21574;BME280;10948;48.706;9.258;2023-02-19T06:45:59;98398.97;;;10.40;100.00
21574;BME280;10948;48.706;9.258;2023-02-19T06:48:24;98389.47;;;10.56;100.00
21574;BME280;10948;48.706;9.258;2023-02-19T06:50:50;98376.63;;;10.70;100.00
21574;BME280;10948;48.706;9.258;2023-02-19T06:53:15;98385.19;;;10.72;100.00
21574;BME280;10948;48.706;9.258;2023-02-19T06:55:40;98391.31;;;10.71;100.00
21574;BME280;10948;48.706;9.258;2023-02-19T06:58:06;98397.34;;;10.72;100.00
21574;BME280;10948;48.706;9.258;2023-02-19T07:00:32;98399.81;;;10.75;100.00
21574;BME280;10948;48.706;9.258;2023-02-19T07:02:57;98398.22;;;10.72;100.00
21574;BME280;10948;48.706;9.258;2023-02-19T07:05:22;98404.16;;;10.74;100.00
21574;BME280;10948;48.706;9.258;2023-02-19T07:07:48;98411.84;;;10.77;100.00
21574;BME280;10948;48.706;9.258;2023-02-19T07:10:13;98413.28;;;10.82;100.00
21574;BME280;10948;48.706;9.258;2023-02-19T07:12:38;98417.72;;;10.64;100.00
21574;BME280;10948;48.706;9.258;2023-02-19T07:15:04;98414.13;;;10.66;100.00
21574;BME280;10948;48.706;9.258;2023-02-19T07:17:29;98428.38;;;10.59;100.00
21574;BME280;10948;48.706;9.258;2023-02-19T07:19:54;98435.72;;;10.51;100.00
21574;BME280;10948;48.706;9.258;2023-02-19T07:22:19;98430.34;;;10.54;100.00
21574;BME280;10948;48.706;9.258;2023-02-19T07:24:45;98442.34;;;10.40;100.00
21574;BME280;10948;48.706;9.258;2023-02-19T07:27:10;98442.38;;;10.57;100.00
21574;BME280;10948;48.706;9.258;2023-02-19T07:29:35;98441.97;;;10.47;100.00
21574;BME280;10948;48.706;9.258;2023-02-19T07:32:00;98445.22;;;10.52;100.00
21574;BME280;10948;48.706;9.258;2023-02-19T07:34:26;98447.50;;;10.58;100.00
21574;BME280;10948;48.706;9.258;2023-02-19T07:36:51;98455.50;;;10.37;100.00
21574;BME280;10948;48.706;9.258;2023-02-19T07:39:17;98454.97;;;10.30;100.00
21574;BME280;10948;48.706;9.258;2023-02-19T07:41:42;98449.31;;;10.39;100.00
21574;BME280;10948;48.706;9.258;2023-02-19T07:44:07;98451.16;;;10.37;100.00
21574;BME280;10948;48.706;9.258;2023-02-19T07:46:33;98458.69;;;10.43;100.00
21574;BME280;10948;48.706;9.258;2023-02-19T07:48:58;98450.69;;;10.46;100.00
21574;BME280;10948;48.706;9.258;2023-02-19T07:51:24;98452.38;;;10.30;100.00
21574;BME280;10948;48.706;9.258;2023-02-19T07:53:49;98452.25;;;10.50;100.00
21574;BME280;10948;48.706;9.258;2023-02-19T07:56:15;98457.47;;;10.50;100.00
21574;BME280;10948;48.706;9.258;2023-02-19T07:58:40;98443.81;;;10.62;100.00
21574;BME280;10948;48.706;9.258;2023-02-19T08:01:15;98442.59;;;10.52;100.00
21574;BME280;10948;48.706;9.258;2023-02-19T08:03:41;98436.19;;;10.59;100.00
21574;BME280;10948;48.706;9.258;2023-02-19T08:06:07;98441.09;;;10.65;100.00
21574;BME280;10948;48.706;9.258;2023-02-19T08:08:32;98430.88;;;10.77;100.00
21574;BME280;10948;48.706;9.258;2023-02-19T08:10:58;98430.19;;;10.74;100.00
21574;BME280;10948;48.706;9.258;2023-02-19T08:13:42;98417.50;;;10.85;100.00
21574;BME280;10948;48.706;9.258;2023-02-19T08:16:11;98428.19;;;10.96;100.00
21574;BME280;10948;48.706;9.258;2023-02-19T08:18:36;98437.41;;;11.03;100.00
21574;BME280;10948;48.706;9.258;2023-02-19T08:21:02;98435.56;;;11.05;100.00
21574;BME280;10948;48.706;9.258;2023-02-19T08:23:27;98438.72;;;10.94;100.00
21574;BME280;10948;48.706;9.258;2023-02-19T08:25:53;98444.75;;;10.95;100.00
21574;BME280;10948;48.706;9.258;2023-02-19T08:28:20;98456.31;;;11.06;100.00
21574;BME280;10948;48.706;9.258;2023-02-19T08:30:46;98466.75;;;11.06;100.00
21574;BME280;10948;48.706;9.258;2023-02-19T08:33:15;98482.44;;;11.05;100.00
21574;BME280;10948;48.706;9.258;2023-02-19T08:35:41;98491.31;;;11.01;100.00
21574;BME280;10948;48.706;9.258;2023-02-19T08:38:07;98491.31;;;11.01;100.00
21574;BME280;10948;48.706;9.258;2023-02-19T08:40:32;98500.66;;;10.88;100.00
21574;BME280;10948;48.706;9.258;2023-02-19T08:43:01;98504.66;;;10.78;100.00
21574;BME280;10948;48.706;9.258;2023-02-19T08:45:27;98500.03;;;10.66;100.00
21574;BME280;10948;48.706;9.258;2023-02-19T08:47:52;98504.19;;;10.87;100.00
21574;BME280;10948;48.706;9.258;2023-02-19T08:50:17;98509.56;;;10.84;100.00
21574;BME280;10948;48.706;9.258;2023-02-19T08:52:43;98506.94;;;11.01;100.00
21574;BME280;10948;48.706;9.258;2023-02-19T08:55:08;98514.97;;;10.96;100.00
21574;BME280;10948;48.706;9.258;2023-02-19T08:57:36;98521.06;;;10.97;100.00
21574;BME280;10948;48.706;9.258;2023-02-19T09:00:02;98511.72;;;11.10;100.00
21574;BME280;10948;48.706;9.258;2023-02-19T09:02:27;98527.78;;;11.01;100.00
21574;BME280;10948;48.706;9.258;2023-02-19T09:04:53;98529.63;;;10.99;100.00
21574;BME280;10948;48.706;9.258;2023-02-19T09:07:18;98530.16;;;10.88;100.00
21574;BME280;10948;48.706;9.258;2023-02-19T09:09:43;98526.94;;;11.00;100.00
21574;BME280;10948;48.706;9.258;2023-02-19T09:12:10;98532.97;;;11.01;100.00
21574;BME280;10948;48.706;9.258;2023-02-19T09:14:36;98531.63;;;11.11;100.00
21574;BME280;10948;48.706;9.258;2023-02-19T09:17:02;98535.84;;;11.13;100.00
21574;BME280;10948;48.706;9.258;2023-02-19T09:19:28;98528.84;;;11.14;100.00
21574;BME280;10948;48.706;9.258;2023-02-19T09:21:53;98537.97;;;11.22;100.00
21574;BME280;10948;48.706;9.258;2023-02-19T09:24:19;98544.34;;;11.17;100.00
21574;BME280;10948;48.706;9.258;2023-02-19T09:26:44;98542.94;;;11.27;98.50
21574;BME280;10948;48.706;9.258;2023-02-19T09:29:12;98548.53;;;11.36;96.84
21574;BME280;10948;48.706;9.258;2023-02-19T09:31:38;98554.88;;;11.48;95.18
21574;BME280;10948;48.706;9.258;2023-02-19T09:34:04;98557.03;;;11.74;94.44
21574;BME280;10948;48.706;9.258;2023-02-19T09:36:29;98558.41;;;11.81;92.49
21574;BME280;10948;48.706;9.258;2023-02-19T09:38:54;98554.22;;;11.94;90.74
21574;BME280;10948;48.706;9.258;2023-02-19T09:43:45;98554.88;;;11.48;89.39
21574;BME280;10948;48.706;9.258;2023-02-19T09:46:24;98556.19;;;11.56;87.53
21574;BME280;10948;48.706;9.258;2023-02-19T09:48:52;98555.84;;;11.64;85.39
21574;BME280;10948;48.706;9.258;2023-02-19T09:51:18;98557.94;;;12.05;84.54
21574;BME280;10948;48.706;9.258;2023-02-19T09:53:44;98556.69;;;12.12;83.40
21574;BME280;10948;48.706;9.258;2023-02-19T09:56:11;98562.16;;;12.08;82.42
21574;BME280;10948;48.706;9.258;2023-02-19T09:58:40;98562.59;;;12.00;83.12
21574;BME280;10948;48.706;9.258;2023-02-19T10:01:09;98576.19;;;11.90;82.84
21574;BME280;10948;48.706;9.258;2023-02-19T10:03:36;98578.63;;;11.93;83.03
21574;BME280;10948;48.706;9.258;2023-02-19T10:06:07;98578.81;;;11.90;83.56
21574;BME280;10948;48.706;9.258;2023-02-19T10:08:35;98566.16;;;11.82;83.94
21574;BME280;10948;48.706;9.258;2023-02-19T10:11:02;98561.31;;;11.92;83.96
21574;BME280;10948;48.706;9.258;2023-02-19T10:13:30;98552.09;;;12.33;81.86
21574;BME280;10948;48.706;9.258;2023-02-19T10:15:57;98545.69;;;13.00;77.40
21574;BME280;10948;48.706;9.258;2023-02-19T10:18:25;98557.06;;;12.84;77.25
21574;BME280;10948;48.706;9.258;2023-02-19T10:20:52;98555.94;;;12.88;77.72
21574;BME280;10948;48.706;9.258;2023-02-19T10:23:17;98556.22;;;12.99;77.23
21574;BME280;10948;48.706;9.258;2023-02-19T10:25:51;98555.28;;;12.69;78.33
21574;BME280;10948;48.706;9.258;2023-02-19T10:28:19;98550.91;;;12.85;78.39
21574;BME280;10948;48.706;9.258;2023-02-19T10:30:54;98549.31;;;12.98;78.49
21574;BME280;10948;48.706;9.258;2023-02-19T10:33:20;98551.00;;;12.99;76.18
21574;BME280;10948;48.706;9.258;2023-02-19T10:35:53;98566.75;;;12.97;78.07
21574;BME280;10948;48.706;9.258;2023-02-19T10:38:19;98570.53;;;13.37;73.79
21574;BME280;10948;48.706;9.258;2023-02-19T10:40:45;98571.94;;;13.13;75.91
21574;BME280;10948;48.706;9.258;2023-02-19T10:43:24;98581.66;;;12.64;76.97
21574;BME280;10948;48.706;9.258;2023-02-19T10:45:55;98588.31;;;13.01;75.59
21574;BME280;10948;48.706;9.258;2023-02-19T10:48:23;98582.53;;;12.96;75.20
21574;BME280;10948;48.706;9.258;2023-02-19T10:50:51;98582.34;;;13.44;75.58
21574;BME280;10948;48.706;9.258;2023-02-19T10:53:22;98580.28;;;13.49;74.89
21574;BME280;10948;48.706;9.258;2023-02-19T10:55:48;98588.25;;;13.61;72.37
21574;BME280;10948;48.706;9.258;2023-02-19T10:58:30;98573.25;;;14.35;70.16
21574;BME280;10948;48.706;9.258;2023-02-19T11:03:37;98575.13;;;15.53;63.91
21574;BME280;10948;48.706;9.258;2023-02-19T11:06:03;98569.47;;;14.67;65.21
21574;BME280;10948;48.706;9.258;2023-02-19T11:08:29;98571.50;;;17.49;59.31
21574;BME280;10948;48.706;9.258;2023-02-19T11:10:56;98584.31;;;16.35;58.49
21574;BME280;10948;48.706;9.258;2023-02-19T11:13:26;98569.56;;;16.57;57.71
21574;BME280;10948;48.706;9.258;2023-02-19T11:15:55;98562.78;;;15.55;58.59
21574;BME280;10948;48.706;9.258;2023-02-19T11:18:22;98559.03;;;16.70;57.77
21574;BME280;10948;48.706;9.258;2023-02-19T11:20:48;98568.25;;;16.39;57.73
21574;BME280;10948;48.706;9.258;2023-02-19T11:23:15;98573.59;;;14.71;59.61
21574;BME280;10948;48.706;9.258;2023-02-19T11:25:45;98576.66;;;14.37;63.05
21574;BME280;10948;48.706;9.258;2023-02-19T11:28:30;98571.00;;;14.15;64.56
21574;BME280;10948;48.706;9.258;2023-02-19T11:31:11;98579.78;;;14.14;64.33
21574;BME280;10948;48.706;9.258;2023-02-19T11:33:42;98570.81;;;14.18;64.70
21574;BME280;10948;48.706;9.258;2023-02-19T11:36:17;98578.81;;;13.73;65.27
21574;BME280;10948;48.706;9.258;2023-02-19T11:38:45;98573.59;;;13.73;65.39
21574;BME280;10948;48.706;9.258;2023-02-19T11:41:21;98573.00;;;13.54;65.92
21574;BME280;10948;48.706;9.258;2023-02-19T11:57:17;98603.84;;;13.49;68.07
21574;BME280;10948;48.706;9.258;2023-02-19T12:08:08;98593.13;;;13.67;67.36
21574;BME280;10948;48.706;9.258;2023-02-19T12:13:14;98602.59;;;13.84;67.66
21574;BME280;10948;48.706;9.258;2023-02-19T12:31:14;98579.63;;;13.89;65.30
21574;BME280;10948;48.706;9.258;2023-02-19T12:36:29;98564.16;;;13.84;65.71
21574;BME280;10948;48.706;9.258;2023-02-19T12:44:08;98572.00;;;13.70;63.87
21574;BME280;10948;48.706;9.258;2023-02-19T12:46:37;98578.28;;;13.82;63.66
21574;BME280;10948;48.706;9.258;2023-02-19T12:51:37;98583.00;;;13.47;64.51
21574;BME280;10948;48.706;9.258;2023-02-19T12:54:37;98588.72;;;13.38;64.86
21574;BME280;10948;48.706;9.258;2023-02-19T12:57:01;98579.63;;;13.45;65.15
21574;BME280;10948;48.706;9.258;2023-02-19T12:59:36;98567.44;;;13.88;65.36
21574;BME280;10948;48.706;9.258;2023-02-19T13:06:56;98581.28;;;13.90;64.54
21574;BME280;10948;48.706;9.258;2023-02-19T13:09:31;98570.16;;;14.14;63.68
21574;BME280;10948;48.706;9.258;2023-02-19T13:11:58;98572.16;;;14.25;63.19
21574;BME280;10948;48.706;9.258;2023-02-19T13:14:27;98572.59;;;14.03;62.81
21574;BME280;10948;48.706;9.258;2023-02-19T13:16:56;98570.97;;;13.73;62.98
21574;BME280;10948;48.706;9.258;2023-02-19T13:19:24;98583.09;;;13.60;62.97
21574;BME280;10948;48.706;9.258;2023-02-19T13:21:51;98578.06;;;13.57;63.38
21574;BME280;10948;48.706;9.258;2023-02-19T13:24:38;98568.56;;;13.70;63.45
21574;BME280;10948;48.706;9.258;2023-02-19T13:27:09;98569.31;;;13.86;62.80
21574;BME280;10948;48.706;9.258;2023-02-19T13:37:45;98591.13;;;13.43;63.80
21574;BME280;10948;48.706;9.258;2023-02-19T13:42:52;98590.13;;;13.30;64.05
21574;BME280;10948;48.706;9.258;2023-02-19T13:45:22;98589.31;;;13.14;65.18
21574;BME280;10948;48.706;9.258;2023-02-19T13:50:28;98565.75;;;13.00;67.01
21574;BME280;10948;48.706;9.258;2023-02-19T13:52:55;98577.25;;;13.11;65.77
21574;BME280;10948;48.706;9.258;2023-02-19T14:00:50;98567.94;;;12.76;67.91
21574;BME280;10948;48.706;9.258;2023-02-19T14:06:10;98564.13;;;12.82;68.73
21574;BME280;10948;48.706;9.258;2023-02-19T14:08:55;98568.72;;;12.63;68.55
21574;BME280;10948;48.706;9.258;2023-02-19T14:14:22;98571.81;;;12.54;70.24
21574;BME280;10948;48.706;9.258;2023-02-19T14:16:55;98580.75;;;12.50;69.13
21574;BME280;10948;48.706;9.258;2023-02-19T14:19:43;98568.13;;;12.58;69.57
21574;BME280;10948;48.706;9.258;2023-02-19T14:24:51;98574.50;;;12.68;70.53
21574;BME280;10948;48.706;9.258;2023-02-19T14:27:17;98571.31;;;12.63;69.70
21574;BME280;10948;48.706;9.258;2023-02-19T14:29:42;98571.13;;;12.66;70.54
21574;BME280;10948;48.706;9.258;2023-02-19T14:32:09;98580.41;;;12.56;71.11
21574;BME280;10948;48.706;9.258;2023-02-19T14:34:40;98582.50;;;12.65;69.93
21574;BME280;10948;48.706;9.258;2023-02-19T14:37:08;98590.16;;;12.68;69.03
21574;BME280;10948;48.706;9.258;2023-02-19T14:39:39;98600.13;;;12.61;68.03
21574;BME280;10948;48.706;9.258;2023-02-19T14:42:21;98595.25;;;12.71;68.38
21574;BME280;10948;48.706;9.258;2023-02-19T14:44:49;98598.25;;;12.63;68.58
21574;BME280;10948;48.706;9.258;2023-02-19T14:47:18;98597.84;;;12.55;69.99
21574;BME280;10948;48.706;9.258;2023-02-19T14:57:31;98605.16;;;12.49;69.45
21574;BME280;10948;48.706;9.258;2023-02-19T14:59:58;98611.47;;;12.45;69.54